sensor_id;sensor_type;location;lat;lon;timestamp;temperature;humidity
31309;DHT22;17936;52.446;10.840;2023-03-01T00:01:39;-1.90;99.90
31309;DHT22;17936;52.446;10.840;2023-03-01T00:04:05;-2.00;99.90
31309;DHT22;17936;52.446;10.840;2023-03-01T00:06:31;-1.90;99.90
31309;DHT22;17936;52.446;10.840;2023-03-01T00:08:56;-1.80;99.90
31309;DHT22;17936;52.446;10.840;2023-03-01T00:11:32;-1.90;99.90
31309;DHT22;17936;52.446;10.840;2023-03-01T00:14:00;-1.90;99.90
31309;DHT22;17936;52.446;10.840;2023-03-01T00:16:33;-1.80;99.90
31309;DHT22;17936;52.446;10.840;2023-03-01T00:18:59;-2.20;99.90
31309;DHT22;17936;52.446;10.840;2023-03-01T00:21:26;-2.10;99.90
31309;DHT22;17936;52.446;10.840;2023-03-01T00:23:52;-2.10;99.90
31309;DHT22;17936;52.446;10.840;2023-03-01T00:26:19;-2.00;99.90
31309;DHT22;17936;52.446;10.840;2023-03-01T00:28:45;-2.10;99.90
31309;DHT22;17936;52.446;10.840;2023-03-01T00:31:15;-2.00;99.90
31309;DHT22;17936;52.446;10.840;2023-03-01T00:33:42;-2.20;99.90
31309;DHT22;17936;52.446;10.840;2023-03-01T00:36:08;-2.50;99.90
31309;DHT22;17936;52.446;10.840;2023-03-01T00:38:39;-2.40;99.90
31309;DHT22;17936;52.446;10.840;2023-03-01T00:41:06;-2.30;99.90
31309;DHT22;17936;52.446;10.840;2023-03-01T00:43:33;-2.30;99.90
31309;DHT22;17936;52.446;10.840;2023-03-01T00:46:06;-2.30;99.90
31309;DHT22;17936;52.446;10.840;2023-03-01T00:48:32;-2.30;99.90
31309;DHT22;17936;52.446;10.840;2023-03-01T00:51:05;-2.30;99.90
31309;DHT22;17936;52.446;10.840;2023-03-01T00:53:30;-2.30;99.90
31309;DHT22;17936;52.446;10.840;2023-03-01T00:55:57;-2.30;99.90
31309;DHT22;17936;52.446;10.840;2023-03-01T00:58:23;-2.30;99.90
31309;DHT22;17936;52.446;10.840;2023-03-01T01:00:49;-2.10;99.90
31309;DHT22;17936;52.446;10.840;2023-03-01T01:03:14;-2.20;99.90
31309;DHT22;17936;52.446;10.840;2023-03-01T01:05:40;-2.40;99.90
31309;DHT22;17936;52.446;10.840;2023-03-01T01:08:05;-2.50;99.90
31309;DHT22;17936;52.446;10.840;2023-03-01T01:10:33;-2.50;99.90
31309;DHT22;17936;52.446;10.840;2023-03-01T01:12:58;-2.50;99.90
31309;DHT22;17936;52.446;10.840;2023-03-01T01:15:24;-2.50;99.90
31309;DHT22;17936;52.446;10.840;2023-03-01T01:17:49;-2.40;99.90
31309;DHT22;17936;52.446;10.840;2023-03-01T01:20:15;-2.20;99.90
31309;DHT22;17936;52.446;10.840;2023-03-01T01:22:40;-2.60;99.90
31309;DHT22;17936;52.446;10.840;2023-03-01T01:25:06;-2.50;99.90
31309;DHT22;17936;52.446;10.840;2023-03-01T01:27:31;-2.60;99.90
31309;DHT22;17936;52.446;10.840;2023-03-01T01:29:57;-2.90;99.90
31309;DHT22;17936;52.446;10.840;2023-03-01T01:32:22;-2.60;99.90
31309;DHT22;17936;52.446;10.840;2023-03-01T01:34:48;-2.60;99.90
31309;DHT22;17936;52.446;10.840;2023-03-01T01:37:13;-2.60;99.90
31309;DHT22;17936;52.446;10.840;2023-03-01T01:39:39;-2.60;99.90
31309;DHT22;17936;52.446;10.840;2023-03-01T01:42:04;-2.70;99.90
31309;DHT22;17936;52.446;10.840;2023-03-01T01:44:30;-2.70;99.90
31309;DHT22;17936;52.446;10.840;2023-03-01T01:47:00;-2.70;99.90
31309;DHT22;17936;52.446;10.840;2023-03-01T01:49:34;-2.70;99.90
31309;DHT22;17936;52.446;10.840;2023-03-01T01:52:12;-2.70;99.90
31309;DHT22;17936;52.446;10.840;2023-03-01T01:54:47;-2.80;99.90
31309;DHT22;17936;52.446;10.840;2023-03-01T01:57:27;-2.80;99.90
31309;DHT22;17936;52.446;10.840;2023-03-01T01:59:56;-2.80;99.90
31309;DHT22;17936;52.446;10.840;2023-03-01T02:02:23;-3.00;99.90
31309;DHT22;17936;52.446;10.840;2023-03-01T02:05:57;-2.90;99.90
31309;DHT22;17936;52.446;10.840;2023-03-01T02:07:56;-2.90;99.90
31309;DHT22;17936;52.446;10.840;2023-03-01T02:10:23;-2.90;99.90
31309;DHT22;17936;52.446;10.840;2023-03-01T02:12:50;-2.90;99.90
31309;DHT22;17936;52.446;10.840;2023-03-01T02:15:16;-2.90;99.90
31309;DHT22;17936;52.446;10.840;2023-03-01T02:17:42;-2.90;99.90
31309;DHT22;17936;52.446;10.840;2023-03-01T02:20:34;-3.00;99.90
31309;DHT22;17936;52.446;10.840;2023-03-01T02:23:03;-2.90;99.90
31309;DHT22;17936;52.446;10.840;2023-03-01T02:30:46;-3.10;99.90
31309;DHT22;17936;52.446;10.840;2023-03-01T02:33:33;-3.10;99.90
31309;DHT22;17936;52.446;10.840;2023-03-01T02:36:03;-3.20;99.90
31309;DHT22;17936;52.446;10.840;2023-03-01T02:38:30;-3.40;99.90
31309;DHT22;17936;52.446;10.840;2023-03-01T02:40:57;-3.20;72.00
31309;DHT22;17936;52.446;10.840;2023-03-01T02:43:27;-3.20;67.30
31309;DHT22;17936;52.446;10.840;2023-03-01T02:45:58;-3.20;57.20
31309;DHT22;17936;52.446;10.840;2023-03-01T02:48:23;-3.00;44.70
31309;DHT22;17936;52.446;10.840;2023-03-01T02:54:06;-3.10;43.10
31309;DHT22;17936;52.446;10.840;2023-03-01T02:56:33;-3.10;25.70
31309;DHT22;17936;52.446;10.840;2023-03-01T02:59:00;-3.10;14.20
31309;DHT22;17936;52.446;10.840;2023-03-01T03:01:26;-3.10;6.80
31309;DHT22;17936;52.446;10.840;2023-03-01T03:04:03;-3.20;1.00
31309;DHT22;17936;52.446;10.840;2023-03-01T03:06:28;-3.30;2.10
31309;DHT22;17936;52.446;10.840;2023-03-01T03:08:54;-3.30;6.30
31309;DHT22;17936;52.446;10.840;2023-03-01T03:11:20;-3.30;1.00
31309;DHT22;17936;52.446;10.840;2023-03-01T03:13:46;-3.30;1.00
31309;DHT22;17936;52.446;10.840;2023-03-01T03:16:13;-3.60;1.10
31309;DHT22;17936;52.446;10.840;2023-03-01T03:18:39;-3.40;22.10
31309;DHT22;17936;52.446;10.840;2023-03-01T03:21:08;-3.30;12.10
31309;DHT22;17936;52.446;10.840;2023-03-01T03:23:35;-3.30;4.40
31309;DHT22;17936;52.446;10.840;2023-03-01T03:26:01;-3.30;1.00
31309;DHT22;17936;52.446;10.840;2023-03-01T03:28:29;-3.40;1.00
31309;DHT22;17936;52.446;10.840;2023-03-01T03:30:56;-3.30;1.00
31309;DHT22;17936;52.446;10.840;2023-03-01T03:33:22;-3.30;1.00
31309;DHT22;17936;52.446;10.840;2023-03-01T03:35:49;-3.30;1.00
31309;DHT22;17936;52.446;10.840;2023-03-01T03:38:17;-3.40;1.00
31309;DHT22;17936;52.446;10.840;2023-03-01T03:40:45;-3.50;1.00
31309;DHT22;17936;52.446;10.840;2023-03-01T03:43:13;-3.60;1.00
31309;DHT22;17936;52.446;10.840;2023-03-01T03:45:39;-3.50;6.00
31309;DHT22;17936;52.446;10.840;2023-03-01T03:48:07;-3.50;1.00
31309;DHT22;17936;52.446;10.840;2023-03-01T03:50:33;-3.40;1.00
31309;DHT22;17936;52.446;10.840;2023-03-01T03:53:04;-3.50;1.00
31309;DHT22;17936;52.446;10.840;2023-03-01T03:55:31;-3.70;1.00
31309;DHT22;17936;52.446;10.840;2023-03-01T03:57:59;-3.90;26.40
31309;DHT22;17936;52.446;10.840;2023-03-01T04:00:27;-3.90;42.40
31309;DHT22;17936;52.446;10.840;2023-03-01T04:02:53;-3.80;61.00
31309;DHT22;17936;52.446;10.840;2023-03-01T04:05:22;-3.70;57.50
31309;DHT22;17936;52.446;10.840;2023-03-01T04:07:47;-3.80;50.20
31309;DHT22;17936;52.446;10.840;2023-03-01T04:10:15;-3.80;50.00
31309;DHT22;17936;52.446;10.840;2023-03-01T04:12:41;-3.90;52.90
31309;DHT22;17936;52.446;10.840;2023-03-01T04:15:11;-4.00;56.40
31309;DHT22;17936;52.446;10.840;2023-03-01T04:17:44;-3.80;66.90
31309;DHT22;17936;52.446;10.840;2023-03-01T04:20:15;-3.80;53.10
31309;DHT22;17936;52.446;10.840;2023-03-01T04:23:01;-3.70;40.00
31309;DHT22;17936;52.446;10.840;2023-03-01T04:25:37;-3.60;28.00
31309;DHT22;17936;52.446;10.840;2023-03-01T04:28:03;-3.80;22.20
31309;DHT22;17936;52.446;10.840;2023-03-01T04:30:29;-3.80;35.40
31309;DHT22;17936;52.446;10.840;2023-03-01T04:32:54;-3.80;26.30
31309;DHT22;17936;52.446;10.840;2023-03-01T04:35:20;-3.80;24.00
31309;DHT22;17936;52.446;10.840;2023-03-01T04:37:45;-3.90;32.10
31309;DHT22;17936;52.446;10.840;2023-03-01T04:40:11;-3.70;35.90
31309;DHT22;17936;52.446;10.840;2023-03-01T04:42:42;-3.70;28.80
31309;DHT22;17936;52.446;10.840;2023-03-01T04:45:08;-3.70;24.00
31309;DHT22;17936;52.446;10.840;2023-03-01T04:47:39;-3.80;16.90
31309;DHT22;17936;52.446;10.840;2023-03-01T04:50:06;-3.90;15.80
31309;DHT22;17936;52.446;10.840;2023-03-01T04:52:31;-3.80;17.00
31309;DHT22;17936;52.446;10.840;2023-03-01T04:54:57;-3.80;15.40
31309;DHT22;17936;52.446;10.840;2023-03-01T04:57:22;-3.80;11.60
31309;DHT22;17936;52.446;10.840;2023-03-01T04:59:48;-3.80;5.90
31309;DHT22;17936;52.446;10.840;2023-03-01T05:02:13;-3.90;1.00
31309;DHT22;17936;52.446;10.840;2023-03-01T05:04:39;-3.90;1.00
31309;DHT22;17936;52.446;10.840;2023-03-01T05:07:04;-4.00;1.00
31309;DHT22;17936;52.446;10.840;2023-03-01T05:09:30;-4.00;3.40
31309;DHT22;17936;52.446;10.840;2023-03-01T05:11:55;-4.10;1.00
31309;DHT22;17936;52.446;10.840;2023-03-01T05:14:21;-4.10;9.00
31309;DHT22;17936;52.446;10.840;2023-03-01T05:16:47;-4.40;3.60
31309;DHT22;17936;52.446;10.840;2023-03-01T05:19:12;-4.20;30.10
31309;DHT22;17936;52.446;10.840;2023-03-01T05:21:41;-4.10;27.40
31309;DHT22;17936;52.446;10.840;2023-03-01T05:24:25;-4.40;23.10
31309;DHT22;17936;52.446;10.840;2023-03-01T05:26:51;-4.20;35.20
31309;DHT22;17936;52.446;10.840;2023-03-01T05:29:20;-4.20;29.00
31309;DHT22;17936;52.446;10.840;2023-03-01T05:31:55;-4.30;16.00
31309;DHT22;17936;52.446;10.840;2023-03-01T05:34:25;-4.20;31.80
31309;DHT22;17936;52.446;10.840;2023-03-01T05:36:51;-4.20;24.40
31309;DHT22;17936;52.446;10.840;2023-03-01T05:39:19;-4.20;20.00
31309;DHT22;17936;52.446;10.840;2023-03-01T05:41:46;-4.20;26.40
31309;DHT22;17936;52.446;10.840;2023-03-01T05:44:12;-4.20;19.10
31309;DHT22;17936;52.446;10.840;2023-03-01T05:46:37;-4.30;16.10
31309;DHT22;17936;52.446;10.840;2023-03-01T05:49:03;-4.40;13.10
31309;DHT22;17936;52.446;10.840;2023-03-01T05:51:29;-4.30;29.50
31309;DHT22;17936;52.446;10.840;2023-03-01T05:53:55;-4.20;22.90
31309;DHT22;17936;52.446;10.840;2023-03-01T05:56:20;-4.30;16.70
31309;DHT22;17936;52.446;10.840;2023-03-01T05:58:48;-5.00;22.30
31309;DHT22;17936;52.446;10.840;2023-03-01T06:01:14;-4.80;75.20
31309;DHT22;17936;52.446;10.840;2023-03-01T06:03:40;-4.50;80.70
31309;DHT22;17936;52.446;10.840;2023-03-01T06:06:05;-4.40;70.50
31309;DHT22;17936;52.446;10.840;2023-03-01T06:08:31;-4.30;60.30
31309;DHT22;17936;52.446;10.840;2023-03-01T06:10:56;-4.30;48.80
31309;DHT22;17936;52.446;10.840;2023-03-01T06:13:23;-4.20;39.50
31309;DHT22;17936;52.446;10.840;2023-03-01T06:15:49;-4.30;31.80
31309;DHT22;17936;52.446;10.840;2023-03-01T06:18:14;-4.20;28.10
31309;DHT22;17936;52.446;10.840;2023-03-01T06:20:40;-4.20;27.50
31309;DHT22;17936;52.446;10.840;2023-03-01T06:23:05;-4.20;22.90
31309;DHT22;17936;52.446;10.840;2023-03-01T06:25:31;-4.20;31.40
31309;DHT22;17936;52.446;10.840;2023-03-01T06:27:57;-4.10;27.00
31309;DHT22;17936;52.446;10.840;2023-03-01T06:30:24;-4.10;22.80
31309;DHT22;17936;52.446;10.840;2023-03-01T06:32:50;-4.00;22.60
31309;DHT22;17936;52.446;10.840;2023-03-01T06:35:17;-3.90;22.60
31309;DHT22;17936;52.446;10.840;2023-03-01T06:37:43;-3.80;24.20
31309;DHT22;17936;52.446;10.840;2023-03-01T06:40:10;-3.80;17.80
31309;DHT22;17936;52.446;10.840;2023-03-01T06:42:38;-3.60;26.90
31309;DHT22;17936;52.446;10.840;2023-03-01T06:45:05;-3.20;29.90
31309;DHT22;17936;52.446;10.840;2023-03-01T06:47:31;-3.10;23.60
31309;DHT22;17936;52.446;10.840;2023-03-01T06:49:58;-3.10;21.60
31309;DHT22;17936;52.446;10.840;2023-03-01T06:52:24;-3.10;23.20
31309;DHT22;17936;52.446;10.840;2023-03-01T06:54:50;-3.10;21.60
31309;DHT22;17936;52.446;10.840;2023-03-01T06:57:15;-2.90;29.80
31309;DHT22;17936;52.446;10.840;2023-03-01T06:59:41;-2.60;27.30
31309;DHT22;17936;52.446;10.840;2023-03-01T07:02:09;-2.50;34.20
31309;DHT22;17936;52.446;10.840;2023-03-01T07:04:34;-2.50;30.00
31309;DHT22;17936;52.446;10.840;2023-03-01T07:07:00;-2.40;26.50
31309;DHT22;17936;52.446;10.840;2023-03-01T07:09:26;-2.10;27.30
31309;DHT22;17936;52.446;10.840;2023-03-01T07:11:51;-1.80;22.80
31309;DHT22;17936;52.446;10.840;2023-03-01T07:14:17;-1.70;99.90
31309;DHT22;17936;52.446;10.840;2023-03-01T07:16:43;-1.50;99.90
31309;DHT22;17936;52.446;10.840;2023-03-01T07:19:08;-1.00;99.90
31309;DHT22;17936;52.446;10.840;2023-03-01T07:21:33;-0.80;99.90
31309;DHT22;17936;52.446;10.840;2023-03-01T07:23:59;-0.40;99.90
31309;DHT22;17936;52.446;10.840;2023-03-01T07:26:24;0.10;99.90
31309;DHT22;17936;52.446;10.840;2023-03-01T07:28:50;0.10;99.90
31309;DHT22;17936;52.446;10.840;2023-03-01T07:31:15;0.00;99.90
31309;DHT22;17936;52.446;10.840;2023-03-01T07:33:41;0.10;99.90
31309;DHT22;17936;52.446;10.840;2023-03-01T07:36:07;-0.20;99.90
31309;DHT22;17936;52.446;10.840;2023-03-01T07:38:33;-0.20;99.90
31309;DHT22;17936;52.446;10.840;2023-03-01T07:41:02;-0.10;99.90
31309;DHT22;17936;52.446;10.840;2023-03-01T07:43:29;0.20;99.90
31309;DHT22;17936;52.446;10.840;2023-03-01T07:45:58;0.80;99.90
31309;DHT22;17936;52.446;10.840;2023-03-01T07:48:23;1.30;99.90
31309;DHT22;17936;52.446;10.840;2023-03-01T07:50:49;1.50;99.90
31309;DHT22;17936;52.446;10.840;2023-03-01T07:53:14;2.00;99.90
31309;DHT22;17936;52.446;10.840;2023-03-01T07:55:40;2.10;99.90
31309;DHT22;17936;52.446;10.840;2023-03-01T07:58:05;1.70;99.90
31309;DHT22;17936;52.446;10.840;2023-03-01T08:00:31;2.20;99.90
31309;DHT22;17936;52.446;10.840;2023-03-01T08:02:59;2.50;99.90
31309;DHT22;17936;52.446;10.840;2023-03-01T08:05:25;2.20;99.90
31309;DHT22;17936;52.446;10.840;2023-03-01T08:07:51;1.90;99.90
31309;DHT22;17936;52.446;10.840;2023-03-01T08:10:16;2.10;99.90
31309;DHT22;17936;52.446;10.840;2023-03-01T08:12:42;2.60;99.90
31309;DHT22;17936;52.446;10.840;2023-03-01T08:15:08;2.30;99.90
31309;DHT22;17936;52.446;10.840;2023-03-01T08:17:34;3.20;99.90
31309;DHT22;17936;52.446;10.840;2023-03-01T08:19:59;3.10;99.90
31309;DHT22;17936;52.446;10.840;2023-03-01T08:22:25;2.40;99.90
31309;DHT22;17936;52.446;10.840;2023-03-01T08:24:50;3.10;99.90
31309;DHT22;17936;52.446;10.840;2023-03-01T08:27:16;2.90;99.90
31309;DHT22;17936;52.446;10.840;2023-03-01T08:29:42;2.90;99.90
31309;DHT22;17936;52.446;10.840;2023-03-01T08:32:08;3.10;99.90
31309;DHT22;17936;52.446;10.840;2023-03-01T08:34:33;3.30;99.90
31309;DHT22;17936;52.446;10.840;2023-03-01T08:37:01;3.20;99.90
31309;DHT22;17936;52.446;10.840;2023-03-01T08:39:27;3.40;99.90
31309;DHT22;17936;52.446;10.840;2023-03-01T08:41:53;3.40;99.90
31309;DHT22;17936;52.446;10.840;2023-03-01T08:44:18;3.50;99.90
31309;DHT22;17936;52.446;10.840;2023-03-01T08:46:45;3.20;99.90
31309;DHT22;17936;52.446;10.840;2023-03-01T08:49:16;4.10;99.90
31309;DHT22;17936;52.446;10.840;2023-03-01T08:51:43;4.30;99.90
31309;DHT22;17936;52.446;10.840;2023-03-01T08:54:17;4.20;99.90
31309;DHT22;17936;52.446;10.840;2023-03-01T08:56:43;4.10;99.90
31309;DHT22;17936;52.446;10.840;2023-03-01T08:59:10;4.40;99.90
31309;DHT22;17936;52.446;10.840;2023-03-01T09:01:36;4.00;99.90
31309;DHT22;17936;52.446;10.840;2023-03-01T09:04:02;4.00;99.90
31309;DHT22;17936;52.446;10.840;2023-03-01T09:06:30;4.30;99.90
31309;DHT22;17936;52.446;10.840;2023-03-01T09:08:57;4.80;99.90
31309;DHT22;17936;52.446;10.840;2023-03-01T09:11:22;5.10;99.90
31309;DHT22;17936;52.446;10.840;2023-03-01T09:13:48;5.40;99.90
31309;DHT22;17936;52.446;10.840;2023-03-01T09:16:16;5.60;99.90
31309;DHT22;17936;52.446;10.840;2023-03-01T09:18:43;5.10;99.90
31309;DHT22;17936;52.446;10.840;2023-03-01T09:21:13;5.10;99.90
31309;DHT22;17936;52.446;10.840;2023-03-01T09:23:45;4.80;99.90
31309;DHT22;17936;52.446;10.840;2023-03-01T09:26:15;5.20;99.90
31309;DHT22;17936;52.446;10.840;2023-03-01T09:28:42;5.10;99.90
31309;DHT22;17936;52.446;10.840;2023-03-01T09:31:08;5.10;99.90
31309;DHT22;17936;52.446;10.840;2023-03-01T09:33:33;5.00;99.90
31309;DHT22;17936;52.446;10.840;2023-03-01T09:36:00;5.60;99.90
31309;DHT22;17936;52.446;10.840;2023-03-01T09:38:27;5.50;99.90
31309;DHT22;17936;52.446;10.840;2023-03-01T09:40:53;5.20;99.90
31309;DHT22;17936;52.446;10.840;2023-03-01T09:45:49;5.00;99.90
31309;DHT22;17936;52.446;10.840;2023-03-01T09:48:20;5.30;99.90
31309;DHT22;17936;52.446;10.840;2023-03-01T09:50:49;5.30;99.90
31309;DHT22;17936;52.446;10.840;2023-03-01T09:53:21;5.50;99.90
31309;DHT22;17936;52.446;10.840;2023-03-01T09:56:03;5.30;99.90
31309;DHT22;17936;52.446;10.840;2023-03-01T09:58:39;5.10;99.90
31309;DHT22;17936;52.446;10.840;2023-03-01T10:01:33;5.70;99.90
31309;DHT22;17936;52.446;10.840;2023-03-01T10:04:10;5.90;99.90
31309;DHT22;17936;52.446;10.840;2023-03-01T10:06:38;5.60;99.90
31309;DHT22;17936;52.446;10.840;2023-03-01T10:09:16;5.90;99.90
31309;DHT22;17936;52.446;10.840;2023-03-01T10:11:47;6.30;99.90
31309;DHT22;17936;52.446;10.840;2023-03-01T10:14:33;6.00;99.90
31309;DHT22;17936;52.446;10.840;2023-03-01T10:17:24;5.90;99.90
31309;DHT22;17936;52.446;10.840;2023-03-01T10:19:51;5.80;99.90
31309;DHT22;17936;52.446;10.840;2023-03-01T10:22:20;6.30;99.90
31309;DHT22;17936;52.446;10.840;2023-03-01T10:24:50;5.70;99.90
31309;DHT22;17936;52.446;10.840;2023-03-01T10:27:49;6.00;99.90
31309;DHT22;17936;52.446;10.840;2023-03-01T10:30:26;6.70;99.90
31309;DHT22;17936;52.446;10.840;2023-03-01T10:32:56;6.40;99.90
31309;DHT22;17936;52.446;10.840;2023-03-01T10:35:25;6.30;99.90
31309;DHT22;17936;52.446;10.840;2023-03-01T10:38:11;6.60;99.70
31309;DHT22;17936;52.446;10.840;2023-03-01T10:43:16;6.80;97.70
31309;DHT22;17936;52.446;10.840;2023-03-01T10:45:41;6.60;98.00
31309;DHT22;17936;52.446;10.840;2023-03-01T10:48:20;6.60;98.20
31309;DHT22;17936;52.446;10.840;2023-03-01T10:50:50;6.60;98.20
31309;DHT22;17936;52.446;10.840;2023-03-01T10:53:29;6.40;97.90
31309;DHT22;17936;52.446;10.840;2023-03-01T10:56:07;6.40;97.60
31309;DHT22;17936;52.446;10.840;2023-03-01T10:58:35;6.80;97.60
31309;DHT22;17936;52.446;10.840;2023-03-01T11:03:40;7.20;97.10
31309;DHT22;17936;52.446;10.840;2023-03-01T11:06:20;7.20;96.90
31309;DHT22;17936;52.446;10.840;2023-03-01T11:08:48;7.20;97.60
31309;DHT22;17936;52.446;10.840;2023-03-01T11:14:18;7.20;95.80
31309;DHT22;17936;52.446;10.840;2023-03-01T11:16:47;7.00;94.90
31309;DHT22;17936;52.446;10.840;2023-03-01T11:19:17;7.00;96.20
31309;DHT22;17936;52.446;10.840;2023-03-01T11:21:52;7.10;95.30
31309;DHT22;17936;52.446;10.840;2023-03-01T11:24:19;7.50;94.50
31309;DHT22;17936;52.446;10.840;2023-03-01T11:26:52;7.10;94.10
31309;DHT22;17936;52.446;10.840;2023-03-01T11:29:35;6.80;94.20
31309;DHT22;17936;52.446;10.840;2023-03-01T11:32:06;6.90;95.40
31309;DHT22;17936;52.446;10.840;2023-03-01T11:37:16;6.80;95.40
31309;DHT22;17936;52.446;10.840;2023-03-01T11:39:54;7.10;94.60
31309;DHT22;17936;52.446;10.840;2023-03-01T11:45:33;7.00;94.30
31309;DHT22;17936;52.446;10.840;2023-03-01T11:50:46;7.40;93.70
31309;DHT22;17936;52.446;10.840;2023-03-01T11:56:34;7.30;92.70
31309;DHT22;17936;52.446;10.840;2023-03-01T11:59:26;7.30;93.00
31309;DHT22;17936;52.446;10.840;2023-03-01T12:08:17;7.50;93.50
31309;DHT22;17936;52.446;10.840;2023-03-01T12:11:01;7.70;93.40
31309;DHT22;17936;52.446;10.840;2023-03-01T12:13:51;8.00;93.30
31309;DHT22;17936;52.446;10.840;2023-03-01T12:16:36;7.60;92.40
31309;DHT22;17936;52.446;10.840;2023-03-01T12:22:09;7.90;91.90
31309;DHT22;17936;52.446;10.840;2023-03-01T12:29:59;7.40;91.20
31309;DHT22;17936;52.446;10.840;2023-03-01T12:32:55;7.80;91.10
31309;DHT22;17936;52.446;10.840;2023-03-01T12:36:02;7.80;92.50
31309;DHT22;17936;52.446;10.840;2023-03-01T12:41:43;7.60;91.80
31309;DHT22;17936;52.446;10.840;2023-03-01T12:44:53;7.80;91.00
31309;DHT22;17936;52.446;10.840;2023-03-01T12:52:57;7.80;91.90
31309;DHT22;17936;52.446;10.840;2023-03-01T12:55:38;7.60;93.10
31309;DHT22;17936;52.446;10.840;2023-03-01T12:58:12;8.50;93.30
31309;DHT22;17936;52.446;10.840;2023-03-01T13:00:55;8.40;92.20
31309;DHT22;17936;52.446;10.840;2023-03-01T13:03:51;8.30;92.80
31309;DHT22;17936;52.446;10.840;2023-03-01T13:12:49;8.40;93.00
31309;DHT22;17936;52.446;10.840;2023-03-01T13:17:48;7.80;93.60
31309;DHT22;17936;52.446;10.840;2023-03-01T13:20:19;8.10;94.20
31309;DHT22;17936;52.446;10.840;2023-03-01T13:23:01;8.00;94.00
31309;DHT22;17936;52.446;10.840;2023-03-01T13:25:26;7.80;93.00
31309;DHT22;17936;52.446;10.840;2023-03-01T13:30:56;7.80;94.50
31309;DHT22;17936;52.446;10.840;2023-03-01T13:35:58;8.10;92.90
31309;DHT22;17936;52.446;10.840;2023-03-01T13:41:12;8.40;94.50
31309;DHT22;17936;52.446;10.840;2023-03-01T13:43:41;8.10;94.00
31309;DHT22;17936;52.446;10.840;2023-03-01T13:46:30;8.10;93.90
31309;DHT22;17936;52.446;10.840;2023-03-01T13:48:56;7.90;92.80
31309;DHT22;17936;52.446;10.840;2023-03-01T13:51:27;8.50;93.40
31309;DHT22;17936;52.446;10.840;2023-03-01T13:53:54;8.80;92.80
31309;DHT22;17936;52.446;10.840;2023-03-01T13:56:36;8.30;92.80
31309;DHT22;17936;52.446;10.840;2023-03-01T13:59:22;8.20;93.70
31309;DHT22;17936;52.446;10.840;2023-03-01T14:01:59;8.20;91.70
31309;DHT22;17936;52.446;10.840;2023-03-01T14:04:30;8.00;91.60
31309;DHT22;17936;52.446;10.840;2023-03-01T14:07:21;8.80;91.20
31309;DHT22;17936;52.446;10.840;2023-03-01T14:09:54;8.60;90.30
31309;DHT22;17936;52.446;10.840;2023-03-01T14:14:59;8.20;90.50
31309;DHT22;17936;52.446;10.840;2023-03-01T14:20:09;8.10;87.70
31309;DHT22;17936;52.446;10.840;2023-03-01T14:22:36;8.00;87.90
31309;DHT22;17936;52.446;10.840;2023-03-01T14:25:06;8.10;87.30
31309;DHT22;17936;52.446;10.840;2023-03-01T14:27:41;8.20;87.70
31309;DHT22;17936;52.446;10.840;2023-03-01T14:30:33;8.40;88.30
31309;DHT22;17936;52.446;10.840;2023-03-01T14:33:04;8.30;87.70
31309;DHT22;17936;52.446;10.840;2023-03-01T14:35:34;8.40;88.50
31309;DHT22;17936;52.446;10.840;2023-03-01T14:37:59;8.10;87.40
31309;DHT22;17936;52.446;10.840;2023-03-01T14:40:28;8.30;89.70
31309;DHT22;17936;52.446;10.840;2023-03-01T14:42:56;8.00;89.90
31309;DHT22;17936;52.446;10.840;2023-03-01T14:45:25;7.90;89.50
31309;DHT22;17936;52.446;10.840;2023-03-01T14:47:51;8.10;89.50
31309;DHT22;17936;52.446;10.840;2023-03-01T14:50:23;8.20;88.10
31309;DHT22;17936;52.446;10.840;2023-03-01T14:52:52;8.10;88.10
31309;DHT22;17936;52.446;10.840;2023-03-01T14:55:21;8.10;89.40
31309;DHT22;17936;52.446;10.840;2023-03-01T14:57:49;8.10;89.20
31309;DHT22;17936;52.446;10.840;2023-03-01T15:00:26;8.00;88.00
31309;DHT22;17936;52.446;10.840;2023-03-01T15:02:54;8.50;89.00
31309;DHT22;17936;52.446;10.840;2023-03-01T15:07:52;8.30;88.80
31309;DHT22;17936;52.446;10.840;2023-03-01T15:10:22;8.10;88.00
31309;DHT22;17936;52.446;10.840;2023-03-01T15:12:48;8.00;88.00
31309;DHT22;17936;52.446;10.840;2023-03-01T15:15:26;7.90;84.90
31309;DHT22;17936;52.446;10.840;2023-03-01T15:17:58;7.90;85.00
31309;DHT22;17936;52.446;10.840;2023-03-01T15:20:26;8.00;86.10
31309;DHT22;17936;52.446;10.840;2023-03-01T15:22:53;8.00;86.10
31309;DHT22;17936;52.446;10.840;2023-03-01T15:25:26;8.10;87.70
31309;DHT22;17936;52.446;10.840;2023-03-01T15:27:53;8.10;85.00
31309;DHT22;17936;52.446;10.840;2023-03-01T15:30:23;7.90;85.00
31309;DHT22;17936;52.446;10.840;2023-03-01T15:33:17;8.00;85.90
31309;DHT22;17936;52.446;10.840;2023-03-01T15:35:46;7.90;85.00
31309;DHT22;17936;52.446;10.840;2023-03-01T15:38:36;7.70;85.50
31309;DHT22;17936;52.446;10.840;2023-03-01T15:41:32;7.70;87.00
31309;DHT22;17936;52.446;10.840;2023-03-01T15:44:16;7.90;87.10
31309;DHT22;17936;52.446;10.840;2023-03-01T15:46:46;7.60;86.90
31309;DHT22;17936;52.446;10.840;2023-03-01T15:49:41;7.50;88.60
31309;DHT22;17936;52.446;10.840;2023-03-01T15:52:29;7.60;89.60
31309;DHT22;17936;52.446;10.840;2023-03-01T15:55:00;7.80;90.60
31309;DHT22;17936;52.446;10.840;2023-03-01T15:57:26;7.80;90.70
31309;DHT22;17936;52.446;10.840;2023-03-01T15:59:52;7.50;90.90
31309;DHT22;17936;52.446;10.840;2023-03-01T16:02:18;7.60;90.70
31309;DHT22;17936;52.446;10.840;2023-03-01T16:04:46;7.50;90.70
31309;DHT22;17936;52.446;10.840;2023-03-01T16:07:12;7.20;91.10
31309;DHT22;17936;52.446;10.840;2023-03-01T16:09:37;7.60;91.00
31309;DHT22;17936;52.446;10.840;2023-03-01T16:12:03;7.20;90.70
31309;DHT22;17936;52.446;10.840;2023-03-01T16:14:28;7.00;91.30
31309;DHT22;17936;52.446;10.840;2023-03-01T16:16:54;6.90;91.60
31309;DHT22;17936;52.446;10.840;2023-03-01T16:19:20;6.90;91.50
31309;DHT22;17936;52.446;10.840;2023-03-01T16:21:45;7.10;91.70
31309;DHT22;17936;52.446;10.840;2023-03-01T16:24:12;6.70;91.50
31309;DHT22;17936;52.446;10.840;2023-03-01T16:26:38;6.80;91.80
31309;DHT22;17936;52.446;10.840;2023-03-01T16:29:04;6.80;92.10
31309;DHT22;17936;52.446;10.840;2023-03-01T16:31:30;7.00;92.10
31309;DHT22;17936;52.446;10.840;2023-03-01T16:33:57;6.70;91.70
31309;DHT22;17936;52.446;10.840;2023-03-01T16:36:25;6.70;92.10
31309;DHT22;17936;52.446;10.840;2023-03-01T16:38:51;6.80;92.50
31309;DHT22;17936;52.446;10.840;2023-03-01T16:41:19;6.60;92.70
31309;DHT22;17936;52.446;10.840;2023-03-01T16:43:45;6.40;92.60
31309;DHT22;17936;52.446;10.840;2023-03-01T16:46:16;6.20;92.40
31309;DHT22;17936;52.446;10.840;2023-03-01T16:48:41;6.10;92.60
31309;DHT22;17936;52.446;10.840;2023-03-01T16:51:07;6.10;92.90
31309;DHT22;17936;52.446;10.840;2023-03-01T16:53:34;6.30;92.70
31309;DHT22;17936;52.446;10.840;2023-03-01T16:56:02;6.20;93.10
31309;DHT22;17936;52.446;10.840;2023-03-01T16:58:28;6.20;93.20
31309;DHT22;17936;52.446;10.840;2023-03-01T17:00:55;5.90;93.50